Time;durP1;ratioP1;P1;durP2;ratioP2;P2;SDS_P1;SDS_P2;PMS_P1;PMS_P2;Temp;Humidity;BMP_temperature;BMP_pressure;BME280_temperature;BME280_humidity;BME280_pressure;Samples;Min_cycle;Max_cycle;Signal;HPM_P1;HPM_P2
2024/01/02 00:00:37;;;;;;;6.47;1.87;;;6.30;99.90;;;;;;5011582;28;20440;-56
2024/01/02 00:03:04;;;;;;;7.57;2.50;;;6.30;99.90;;;;;;5007292;28;20488;-56
2024/01/02 00:05:30;;;;;;;2.93;1.67;;;6.30;99.90;;;;;;5005337;28;20514;-60
2024/01/02 00:07:57;;;;;;;6.63;1.60;;;6.30;99.90;;;;;;5011053;28;20941;-60
2024/01/02 00:10:24;;;;;;;2.73;1.50;;;6.30;99.90;;;;;;5008955;28;20444;-55
2024/01/02 00:12:50;;;;;;;9.40;1.87;;;6.30;99.90;;;;;;5011015;28;20439;-55
2024/01/02 00:15:18;;;;;;;4.73;2.00;;;6.20;99.90;;;;;;5013079;28;20525;-55
2024/01/02 00:17:45;;;;;;;4.93;2.77;;;6.20;99.90;;;;;;5013670;28;20490;-55
2024/01/02 00:20:13;;;;;;;4.10;2.20;;;6.20;99.90;;;;;;5011449;28;20859;-57
2024/01/02 00:22:40;;;;;;;3.27;2.00;;;6.20;99.90;;;;;;5015206;28;20562;-57
2024/01/02 00:25:07;;;;;;;5.50;1.90;;;6.20;99.90;;;;;;5013375;28;20550;-57
2024/01/02 00:27:34;;;;;;;3.43;1.50;;;6.20;99.90;;;;;;5008046;28;20475;-56
2024/01/02 00:30:01;;;;;;;9.50;2.17;;;6.20;99.90;;;;;;5014866;28;20447;-57
2024/01/02 00:32:28;;;;;;;5.73;2.23;;;6.20;99.90;;;;;;5013835;28;20440;-57
2024/01/02 00:34:57;;;;;;;5.07;1.73;;;6.20;99.90;;;;;;5014980;28;20440;-57
2024/01/02 00:37:24;;;;;;;4.27;1.60;;;6.10;99.90;;;;;;5014484;28;20881;-57
2024/01/02 00:39:51;;;;;;;4.60;2.07;;;6.10;99.90;;;;;;5012890;28;20933;-56
2024/01/02 00:42:17;;;;;;;5.33;1.97;;;6.10;99.90;;;;;;5014978;28;20550;-57
2024/01/02 00:44:44;;;;;;;4.60;2.10;;;6.10;99.90;;;;;;5010267;28;20526;-56
2024/01/02 00:47:10;;;;;;;5.83;2.23;;;6.10;99.90;;;;;;5013424;28;20467;-57
2024/01/02 00:49:39;;;;;;;6.23;2.07;;;6.10;99.90;;;;;;5014470;28;20461;-56
2024/01/02 00:52:06;;;;;;;5.50;1.87;;;6.10;99.90;;;;;;5014683;28;20448;-57
2024/01/02 00:54:32;;;;;;;6.47;2.00;;;6.10;99.90;;;;;;5013359;28;20490;-57
2024/01/02 00:56:59;;;;;;;7.43;2.00;;;6.10;99.90;;;;;;5012792;28;20479;-56
2024/01/02 00:59:26;;;;;;;4.77;1.63;;;6.10;99.90;;;;;;5010781;28;20535;-56
2024/01/02 01:01:52;;;;;;;6.13;2.80;;;6.10;99.90;;;;;;5013907;28;20494;-57
2024/01/02 01:04:19;;;;;;;4.20;2.10;;;6.10;99.90;;;;;;5014283;28;20491;-56
2024/01/02 01:06:47;;;;;;;5.60;1.90;;;6.10;99.90;;;;;;5014155;28;20471;-57
2024/01/02 01:09:13;;;;;;;5.20;1.70;;;6.10;99.90;;;;;;5014103;28;20444;-57
2024/01/02 01:11:40;;;;;;;4.33;2.40;;;6.10;99.90;;;;;;5014246;28;20448;-58
2024/01/02 01:14:06;;;;;;;3.40;2.07;;;6.20;99.90;;;;;;5011875;28;20486;-57
2024/01/02 01:16:33;;;;;;;4.03;1.83;;;6.10;99.90;;;;;;5010419;28;20483;-57
2024/01/02 01:18:59;;;;;;;10.80;2.60;;;6.10;99.90;;;;;;5012501;28;20513;-57
2024/01/02 01:21:26;;;;;;;6.53;1.77;;;6.00;99.90;;;;;;5007920;28;20520;-56
2024/01/02 01:23:54;;;;;;;5.73;1.90;;;6.00;99.90;;;;;;5004958;28;20492;-58
2024/01/02 01:26:21;;;;;;;8.20;1.93;;;6.00;99.90;;;;;;5007358;28;20476;-57
2024/01/02 01:28:47;;;;;;;5.13;1.70;;;6.00;99.90;;;;;;5009805;28;20509;-56
2024/01/02 01:31:14;;;;;;;2.03;1.80;;;6.00;99.90;;;;;;5011004;28;20459;-56
2024/01/02 01:33:41;;;;;;;5.27;2.10;;;5.90;99.90;;;;;;5013909;28;20440;-56
2024/01/02 01:36:07;;;;;;;6.27;2.13;;;5.90;99.90;;;;;;5011527;28;21239;-57
2024/01/02 01:38:34;;;;;;;5.30;1.57;;;5.90;99.90;;;;;;5013558;28;20502;-57
2024/01/02 01:41:02;;;;;;;10.50;3.37;;;5.90;99.90;;;;;;5013682;28;20498;-56
2024/01/02 01:43:28;;;;;;;5.10;1.97;;;5.90;99.90;;;;;;5013044;28;20483;-57
2024/01/02 01:45:55;;;;;;;2.90;1.73;;;5.90;99.90;;;;;;5013118;28;20493;-57
2024/01/02 01:48:22;;;;;;;3.70;1.93;;;5.90;99.90;;;;;;5010508;28;20487;-57
2024/01/02 01:50:49;;;;;;;4.70;1.93;;;5.90;99.90;;;;;;5013494;28;20692;-57
2024/01/02 01:53:17;;;;;;;7.27;1.80;;;5.90;99.90;;;;;;5011723;28;20533;-56
2024/01/02 01:55:44;;;;;;;3.47;1.87;;;5.90;99.90;;;;;;5013156;28;20938;-56
2024/01/02 01:58:12;;;;;;;5.07;1.93;;;5.90;99.90;;;;;;5012818;28;20463;-56
2024/01/02 02:00:39;;;;;;;4.13;1.27;;;5.90;99.90;;;;;;5005912;28;20450;-57
2024/01/02 02:03:06;;;;;;;8.30;2.30;;;5.80;99.90;;;;;;5010624;28;20483;-57
2024/01/02 02:05:35;;;;;;;2.63;1.70;;;5.80;99.90;;;;;;5012712;28;20952;-56
2024/01/02 02:08:02;;;;;;;4.97;1.90;;;5.80;99.90;;;;;;5012723;28;20472;-57
2024/01/02 02:10:29;;;;;;;9.00;2.40;;;5.80;99.90;;;;;;5011240;28;20464;-57
2024/01/02 02:12:56;;;;;;;8.13;1.87;;;5.80;99.90;;;;;;5011873;28;20570;-58
2024/01/02 02:15:24;;;;;;;7.33;1.90;;;5.80;99.90;;;;;;5013683;28;20571;-57
2024/01/02 02:17:51;;;;;;;5.17;2.10;;;5.70;99.90;;;;;;5013511;28;20957;-58
2024/01/02 02:20:17;;;;;;;4.03;1.73;;;5.70;99.90;;;;;;5011184;28;20471;-58
2024/01/02 02:22:50;;;;;;;4.80;2.10;;;5.70;99.90;;;;;;5014955;28;20934;-56
2024/01/02 02:25:17;;;;;;;9.37;2.23;;;5.70;99.90;;;;;;5013235;28;20561;-57
2024/01/02 02:27:45;;;;;;;6.20;1.93;;;5.60;99.90;;;;;;5010930;28;21039;-57
2024/01/02 02:30:12;;;;;;;8.13;2.23;;;5.50;99.90;;;;;;5012301;28;20475;-57
2024/01/02 02:32:39;;;;;;;4.07;2.30;;;5.50;99.90;;;;;;5012640;28;20448;-57
2024/01/02 02:35:06;;;;;;;6.17;2.20;;;5.50;99.90;;;;;;5009547;28;20514;-56
2024/01/02 02:37:33;;;;;;;8.67;2.03;;;5.40;99.90;;;;;;5006197;28;21094;-57
2024/01/02 02:40:02;;;;;;;9.63;2.60;;;5.30;99.90;;;;;;5011271;28;20463;-57
2024/01/02 02:42:28;;;;;;;5.03;2.27;;;5.30;99.90;;;;;;5005129;28;20831;-57
2024/01/02 02:45:00;;;;;;;4.00;2.30;;;5.30;99.90;;;;;;5008234;28;20518;-57
2024/01/02 02:47:26;;;;;;;7.63;2.47;;;5.10;99.90;;;;;;5007445;28;20484;-56
2024/01/02 02:49:53;;;;;;;11.63;2.57;;;5.00;99.90;;;;;;5010149;28;20471;-56
2024/01/02 02:52:20;;;;;;;6.13;2.40;;;4.90;99.90;;;;;;5002369;28;20464;-57
2024/01/02 02:54:46;;;;;;;6.20;2.37;;;4.80;99.90;;;;;;5007439;28;20452;-58
2024/01/02 02:57:14;;;;;;;10.20;2.80;;;4.80;99.90;;;;;;5009610;28;20596;-56
2024/01/02 02:59:41;;;;;;;5.53;1.90;;;4.70;99.90;;;;;;5010954;28;21000;-61
2024/01/02 03:02:07;;;;;;;4.80;1.90;;;4.60;99.90;;;;;;5005300;28;20491;-57
2024/01/02 03:04:34;;;;;;;6.27;2.40;;;4.50;99.90;;;;;;5012461;28;20522;-57
2024/01/02 03:07:01;;;;;;;6.77;2.03;;;4.50;99.90;;;;;;5006199;28;20539;-57
2024/01/02 03:09:27;;;;;;;7.37;2.57;;;4.50;99.90;;;;;;5007470;28;20463;-57
2024/01/02 03:11:54;;;;;;;5.00;2.20;;;4.40;99.90;;;;;;5005485;28;20832;-57
2024/01/02 03:14:22;;;;;;;7.33;2.00;;;4.40;99.90;;;;;;5007325;28;20514;-57
2024/01/02 03:16:48;;;;;;;8.33;2.50;;;4.30;99.90;;;;;;5004618;28;20515;-57
2024/01/02 03:19:15;;;;;;;9.40;2.20;;;4.30;99.90;;;;;;5006334;28;20503;-57
2024/01/02 03:21:41;;;;;;;4.60;2.63;;;4.20;99.90;;;;;;4997212;28;20950;-56
2024/01/02 03:24:08;;;;;;;11.80;2.40;;;4.20;99.90;;;;;;5003262;28;21005;-57
2024/01/02 03:26:34;;;;;;;6.37;2.80;;;4.20;99.90;;;;;;5008517;28;20484;-56
2024/01/02 03:29:01;;;;;;;18.00;3.20;;;4.10;99.90;;;;;;5000823;28;20531;-57
2024/01/02 03:31:29;;;;;;;4.47;2.00;;;4.00;99.90;;;;;;5007623;28;20463;-57
2024/01/02 03:33:56;;;;;;;7.00;2.43;;;3.90;99.90;;;;;;5009151;28;20464;-56
2024/01/02 03:36:23;;;;;;;5.83;2.30;;;3.80;99.90;;;;;;5003971;28;20555;-60
2024/01/02 03:38:51;;;;;;;7.00;2.73;;;3.80;99.90;;;;;;5007923;28;20468;-60
2024/01/02 03:41:18;;;;;;;9.30;2.97;;;3.80;99.90;;;;;;5005413;28;20491;-62
2024/01/02 03:43:45;;;;;;;7.87;2.70;;;3.80;99.90;;;;;;5007586;28;20511;-59
2024/01/02 03:46:12;;;;;;;10.43;2.90;;;3.80;99.90;;;;;;5006027;28;20491;-60
2024/01/02 03:48:40;;;;;;;5.37;2.50;;;3.80;96.50;;;;;;5009198;28;21007;-57
2024/01/02 03:51:06;;;;;;;3.93;2.60;;;3.70;95.40;;;;;;5011155;28;20452;-56
2024/01/02 03:53:33;;;;;;;5.60;2.17;;;3.70;94.80;;;;;;5009899;28;20436;-57
2024/01/02 03:55:59;;;;;;;12.33;3.13;;;3.70;93.40;;;;;;5011286;28;20444;-56
2024/01/02 03:58:27;;;;;;;11.43;2.83;;;3.60;89.40;;;;;;5002871;28;20479;-57
2024/01/02 04:00:55;;;;;;;12.20;3.30;;;3.60;86.60;;;;;;5011074;28;20443;-57
2024/01/02 04:03:21;;;;;;;6.17;2.73;;;3.60;84.60;;;;;;5009854;28;20900;-57
2024/01/02 04:05:50;;;;;;;10.03;3.07;;;3.60;77.60;;;;;;5011413;28;20440;-58
2024/01/02 04:08:16;;;;;;;8.13;2.33;;;3.60;77.50;;;;;;5010881;28;20475;-57
2024/01/02 04:10:43;;;;;;;6.50;2.37;;;3.60;75.70;;;;;;5010674;28;20468;-58
2024/01/02 04:13:10;;;;;;;6.03;2.53;;;3.60;74.00;;;;;;5011681;28;20447;-56
2024/01/02 04:15:37;;;;;;;6.93;3.03;;;3.50;74.10;;;;;;5005181;28;20812;-56
2024/01/02 04:18:04;;;;;;;6.67;2.90;;;3.60;66.90;;;;;;5010890;28;20526;-57
2024/01/02 04:20:31;;;;;;;5.63;2.40;;;3.50;67.90;;;;;;5009705;28;20503;-58
2024/01/02 04:22:59;;;;;;;7.03;2.77;;;3.50;67.20;;;;;;5011320;28;20958;-57
2024/01/02 04:25:24;;;;;;;13.00;3.33;;;3.50;63.00;;;;;;5008868;28;20487;-57
2024/01/02 04:27:54;;;;;;;8.90;3.13;;;3.50;60.10;;;;;;5005293;28;20529;-57
2024/01/02 04:30:20;;;;;;;7.97;3.00;;;3.50;59.40;;;;;;5009076;28;20584;-56
2024/01/02 04:32:47;;;;;;;9.57;3.40;;;3.50;60.40;;;;;;5009284;28;20444;-57
2024/01/02 04:35:14;;;;;;;8.90;2.93;;;3.40;59.90;;;;;;5010840;28;20437;-56
2024/01/02 04:37:40;;;;;;;7.03;2.97;;;3.40;59.40;;;;;;5008979;28;20525;-56
2024/01/02 04:40:10;;;;;;;9.77;2.80;;;3.40;56.40;;;;;;5010943;28;20467;-57
2024/01/02 04:42:37;;;;;;;9.00;2.20;;;3.40;55.20;;;;;;5011008;28;20960;-58
2024/01/02 04:45:05;;;;;;;10.50;3.87;;;3.40;53.50;;;;;;5010723;28;20488;-56
2024/01/02 04:47:32;;;;;;;7.13;2.40;;;3.50;49.10;;;;;;5010522;28;20476;-57
2024/01/02 04:49:59;;;;;;;11.90;3.27;;;3.40;53.40;;;;;;5006958;28;20463;-57
2024/01/02 04:52:26;;;;;;;8.30;2.63;;;3.40;48.00;;;;;;5009798;28;20451;-57
2024/01/02 04:54:53;;;;;;;12.17;3.20;;;3.40;52.20;;;;;;5009319;28;20451;-57
2024/01/02 04:57:21;;;;;;;8.77;2.60;;;3.40;51.70;;;;;;5010545;28;20463;-57
2024/01/02 04:59:48;;;;;;;10.90;2.80;;;3.40;51.10;;;;;;5011630;28;20854;-57
2024/01/02 05:02:15;;;;;;;12.83;3.47;;;3.40;50.20;;;;;;5014325;28;20454;-57
2024/01/02 05:04:41;;;;;;;9.70;3.67;;;3.40;48.70;;;;;;5008981;28;20890;-57
2024/01/02 05:07:08;;;;;;;7.93;2.37;;;3.30;48.80;;;;;;5013375;28;20468;-57
2024/01/02 05:09:34;;;;;;;7.97;3.07;;;3.40;47.10;;;;;;5012654;28;20840;-57
2024/01/02 05:12:01;;;;;;;13.83;3.00;;;3.40;46.10;;;;;;5047074;22;20498;-59
2024/01/02 05:14:29;;;;;;;11.97;3.47;;;3.50;44.70;;;;;;5044920;28;20439;-57
2024/01/02 05:16:56;;;;;;;9.13;3.43;;;3.50;47.80;;;;;;5040822;28;20471;-59
2024/01/02 05:19:22;;;;;;;19.03;3.67;;;3.50;48.50;;;;;;5054945;28;21003;-58
2024/01/02 05:21:51;;;;;;;8.97;2.60;;;3.50;50.20;;;;;;5052289;28;20509;-58
2024/01/02 05:24:17;;;;;;;9.07;2.70;;;3.40;51.20;;;;;;5037013;28;20483;-58
2024/01/02 05:26:44;;;;;;;9.83;2.67;;;3.40;51.50;;;;;;5033851;28;20443;-57
2024/01/02 05:29:10;;;;;;;10.00;3.00;;;3.40;50.80;;;;;;5021735;28;20451;-58
2024/01/02 05:31:38;;;;;;;11.27;3.90;;;3.30;50.50;;;;;;5033517;28;20593;-59
2024/01/02 05:34:05;;;;;;;12.07;4.83;;;3.30;48.90;;;;;;5033428;28;20932;-58
2024/01/02 05:36:31;;;;;;;13.60;4.47;;;3.30;46.40;;;;;;5030337;28;20453;-57
2024/01/02 05:38:58;;;;;;;11.40;3.90;;;3.30;48.20;;;;;;5031402;28;20531;-57
2024/01/02 05:41:25;;;;;;;15.33;4.00;;;3.30;47.00;;;;;;5033723;28;20490;-58
2024/01/02 05:43:51;;;;;;;11.07;4.60;;;3.30;46.60;;;;;;5026864;28;20897;-57
2024/01/02 05:46:18;;;;;;;14.10;4.63;;;3.20;45.30;;;;;;5033037;28;20470;-57
2024/01/02 05:48:46;;;;;;;10.97;3.33;;;3.20;45.10;;;;;;5031936;28;20487;-57
2024/01/02 05:51:12;;;;;;;12.20;2.97;;;3.20;41.20;;;;;;5033692;28;20506;-57
2024/01/02 05:53:39;;;;;;;15.10;3.50;;;3.20;40.40;;;;;;5033409;28;20443;-57
2024/01/02 05:56:06;;;;;;;10.33;3.13;;;3.30;40.00;;;;;;5030504;28;20459;-58
2024/01/02 05:58:32;;;;;;;11.23;3.30;;;3.30;37.70;;;;;;5030255;28;20463;-57
2024/01/02 06:00:59;;;;;;;12.87;3.57;;;3.30;40.30;;;;;;5029863;28;20486;-56
2024/01/02 06:03:26;;;;;;;8.60;3.47;;;3.30;40.60;;;;;;5031142;28;20505;-56
2024/01/02 06:05:53;;;;;;;10.07;3.53;;;3.30;40.90;;;;;;5032398;28;20912;-58
2024/01/02 06:08:21;;;;;;;11.00;3.17;;;3.30;41.00;;;;;;5032354;28;20616;-57
2024/01/02 06:10:47;;;;;;;11.13;4.10;;;3.30;40.30;;;;;;5032478;28;20470;-57
2024/01/02 06:13:14;;;;;;;14.93;3.67;;;3.30;40.80;;;;;;5033385;28;20869;-57
2024/01/02 06:15:40;;;;;;;9.17;3.10;;;3.30;41.00;;;;;;5027755;28;20463;-58
2024/01/02 06:18:08;;;;;;;9.47;3.57;;;3.30;42.40;;;;;;5032814;28;21014;-57
2024/01/02 06:20:34;;;;;;;10.47;3.10;;;3.30;43.90;;;;;;5029342;28;20869;-57
2024/01/02 06:23:02;;;;;;;6.50;2.73;;;3.30;44.50;;;;;;5027697;28;20851;-57
2024/01/02 06:25:29;;;;;;;14.03;3.90;;;3.30;45.20;;;;;;5029259;28;20515;-57
2024/01/02 06:27:56;;;;;;;4.53;2.30;;;3.30;45.20;;;;;;5035950;28;20438;-57
2024/01/02 06:30:23;;;;;;;11.70;3.50;;;3.30;45.20;;;;;;5031805;28;20525;-57
2024/01/02 06:32:49;;;;;;;13.47;3.40;;;3.30;46.00;;;;;;5032602;28;20443;-56
2024/01/02 06:35:16;;;;;;;6.73;3.00;;;3.30;45.50;;;;;;5031488;28;20438;-57
2024/01/02 06:37:42;;;;;;;8.70;2.70;;;3.30;45.00;;;;;;5032667;28;20858;-57
2024/01/02 06:40:11;;;;;;;9.10;3.00;;;3.30;45.10;;;;;;5031911;28;20435;-57
2024/01/02 06:42:37;;;;;;;10.50;3.50;;;3.40;46.40;;;;;;5030747;28;20866;-56
2024/01/02 06:45:05;;;;;;;9.13;3.00;;;3.30;51.50;;;;;;5031856;28;20491;-57
2024/01/02 06:47:32;;;;;;;14.73;3.97;;;3.40;51.30;;;;;;5032205;28;20534;-56
2024/01/02 06:49:58;;;;;;;13.23;3.50;;;3.40;55.20;;;;;;5031369;28;20540;-57
2024/01/02 06:52:25;;;;;;;11.43;3.50;;;3.30;53.90;;;;;;5032086;28;20941;-57
2024/01/02 06:54:52;;;;;;;7.17;3.20;;;3.30;54.90;;;;;;5031977;28;20540;-57
2024/01/02 06:57:20;;;;;;;9.03;3.43;;;3.40;55.40;;;;;;5029486;28;20463;-57
2024/01/02 06:59:47;;;;;;;9.77;2.90;;;3.30;55.30;;;;;;5037401;28;20532;-57
2024/01/02 07:02:13;;;;;;;9.53;3.60;;;3.40;53.80;;;;;;5032276;28;20520;-56
2024/01/02 07:04:40;;;;;;;7.90;3.07;;;3.30;55.00;;;;;;5033446;28;20506;-57
2024/01/02 07:07:07;;;;;;;9.80;3.47;;;3.30;54.20;;;;;;5030579;28;20898;-58
2024/01/02 07:09:33;;;;;;;7.47;3.00;;;3.30;55.20;;;;;;5032011;28;20443;-58
2024/01/02 07:12:00;;;;;;;7.53;2.73;;;3.40;54.50;;;;;;5023662;28;20524;-57
2024/01/02 07:14:28;;;;;;;13.33;3.90;;;3.40;56.10;;;;;;5028354;28;20463;-57
2024/01/02 07:16:54;;;;;;;9.23;2.70;;;3.40;55.70;;;;;;5031494;28;20489;-57
2024/01/02 07:19:21;;;;;;;10.67;3.57;;;3.40;55.70;;;;;;5031433;28;20825;-57
2024/01/02 07:21:48;;;;;;;6.00;3.40;;;3.40;57.80;;;;;;5031163;28;20475;-57
2024/01/02 07:24:15;;;;;;;9.10;3.77;;;3.40;58.50;;;;;;5030636;28;20530;-57
2024/01/02 07:26:42;;;;;;;8.93;3.63;;;3.50;59.50;;;;;;5031514;28;20493;-57
2024/01/02 07:29:09;;;;;;;12.03;4.07;;;3.50;60.60;;;;;;5031073;28;20505;-57
2024/01/02 07:31:36;;;;;;;9.13;3.63;;;3.50;60.40;;;;;;5028219;28;20487;-57
2024/01/02 07:34:03;;;;;;;10.03;3.87;;;3.50;59.90;;;;;;5031681;28;20501;-56
2024/01/02 07:36:30;;;;;;;8.40;3.87;;;3.50;60.10;;;;;;5029130;28;20452;-57
2024/01/02 07:38:57;;;;;;;5.20;3.03;;;3.60;59.60;;;;;;5022344;28;20490;-57
2024/01/02 07:41:23;;;;;;;10.13;4.10;;;3.60;64.40;;;;;;5032529;28;20475;-57
2024/01/02 07:43:50;;;;;;;10.10;5.90;;;3.60;63.90;;;;;;5035249;28;20487;-56
2024/01/02 07:46:17;;;;;;;6.73;2.80;;;3.60;65.10;;;;;;5023968;28;20519;-58
2024/01/02 07:48:45;;;;;;;10.70;3.50;;;3.60;65.80;;;;;;5026807;28;20992;-57
2024/01/02 07:51:11;;;;;;;7.67;3.10;;;3.60;67.80;;;;;;5019726;28;20539;-58
2024/01/02 07:53:38;;;;;;;6.87;2.87;;;3.60;68.70;;;;;;5019444;28;20624;-59
2024/01/02 07:56:05;;;;;;;10.83;3.50;;;3.70;70.20;;;;;;5024007;28;20452;-59
2024/01/02 07:58:32;;;;;;;4.67;3.00;;;3.70;68.30;;;;;;5026995;28;20447;-59
2024/01/02 08:00:58;;;;;;;10.27;3.50;;;3.70;68.80;;;;;;5027012;28;20494;-59
2024/01/02 08:03:25;;;;;;;7.53;3.33;;;3.70;69.80;;;;;;5027349;28;20513;-58
2024/01/02 08:05:54;;;;;;;6.33;2.73;;;3.80;69.80;;;;;;5024128;28;20479;-59
2024/01/02 08:08:20;;;;;;;6.77;3.40;;;3.70;72.30;;;;;;5018293;28;21203;-59
2024/01/02 08:10:47;;;;;;;9.10;3.53;;;3.70;76.40;;;;;;5036351;28;20463;-59
2024/01/02 08:13:14;;;;;;;7.63;3.13;;;3.80;71.80;;;;;;5047030;28;20477;-61
2024/01/02 08:15:40;;;;;;;8.80;3.80;;;3.90;72.40;;;;;;5043632;28;20439;-59
2024/01/02 08:18:07;;;;;;;4.53;2.77;;;3.90;80.50;;;;;;5049388;28;20485;-59
2024/01/02 08:20:34;;;;;;;6.20;2.50;;;3.90;81.10;;;;;;5047899;28;20493;-59
2024/01/02 08:23:02;;;;;;;4.93;2.60;;;3.90;83.20;;;;;;5032111;28;20532;-59
2024/01/02 08:25:29;;;;;;;11.10;3.00;;;3.90;81.90;;;;;;5023503;28;20486;-58
2024/01/02 08:27:55;;;;;;;5.80;2.50;;;4.00;80.50;;;;;;5028334;28;20933;-59
2024/01/02 08:30:22;;;;;;;10.83;4.70;;;4.00;81.30;;;;;;5032620;28;20513;-58
2024/01/02 08:32:48;;;;;;;6.90;3.00;;;4.00;82.60;;;;;;5025514;28;20462;-59
2024/01/02 08:35:15;;;;;;;10.33;3.10;;;4.10;81.10;;;;;;5034357;28;20458;-58
2024/01/02 08:37:42;;;;;;;8.53;2.83;;;4.10;81.30;;;;;;5033402;28;20508;-58
2024/01/02 08:40:11;;;;;;;4.67;2.63;;;4.10;84.40;;;;;;5034393;28;20952;-58
2024/01/02 08:42:38;;;;;;;5.73;2.63;;;4.10;82.10;;;;;;5029694;28;20465;-58
2024/01/02 08:45:05;;;;;;;5.17;2.50;;;4.10;80.80;;;;;;5031423;28;20871;-58
2024/01/02 08:47:33;;;;;;;8.00;2.97;;;4.20;79.00;;;;;;5030915;28;20467;-58
2024/01/02 08:50:00;;;;;;;4.83;2.80;;;4.20;83.20;;;;;;5026543;28;20496;-58
2024/01/02 08:52:26;;;;;;;8.73;2.87;;;4.20;83.50;;;;;;5029475;28;20847;-58
2024/01/02 08:54:53;;;;;;;7.93;2.93;;;4.30;77.90;;;;;;5029439;28;20866;-58
2024/01/02 08:57:21;;;;;;;4.70;2.50;;;4.30;79.70;;;;;;5030122;28;20924;-57
2024/01/02 08:59:47;;;;;;;5.10;2.57;;;4.30;77.80;;;;;;5027664;28;20459;-57
2024/01/02 09:02:14;;;;;;;5.47;2.50;;;4.30;73.90;;;;;;5024151;28;20545;-58
2024/01/02 09:04:43;;;;;;;11.17;3.60;;;4.30;73.00;;;;;;5026396;28;21659;-58
2024/01/02 09:07:09;;;;;;;7.13;2.60;;;4.30;70.40;;;;;;5027964;28;20485;-60
2024/01/02 09:09:36;;;;;;;3.63;2.83;;;4.40;71.50;;;;;;5030575;28;20517;-54
2024/01/02 09:12:02;;;;;;;9.70;3.50;;;4.40;70.50;;;;;;5026688;28;20913;-54
2024/01/02 09:14:30;;;;;;;6.83;2.63;;;4.40;69.10;;;;;;5028914;28;20466;-55
2024/01/02 09:16:57;;;;;;;4.10;2.67;;;4.50;69.50;;;;;;5029885;28;20474;-54
2024/01/02 09:19:23;;;;;;;9.07;2.80;;;4.50;64.60;;;;;;5023212;28;21061;-55
2024/01/02 09:21:50;;;;;;;3.60;1.80;;;4.50;64.00;;;;;;5027083;28;20486;-54
2024/01/02 09:24:18;;;;;;;5.10;2.53;;;4.50;63.80;;;;;;5028598;28;20500;-54
2024/01/02 09:26:46;;;;;;;8.03;3.20;;;4.50;57.70;;;;;;5029258;28;20589;-54
2024/01/02 09:29:13;;;;;;;4.53;2.47;;;4.50;54.20;;;;;;5028332;28;20446;-54
2024/01/02 09:31:42;;;;;;;6.20;2.63;;;4.50;47.90;;;;;;5024943;28;20488;-54
2024/01/02 09:34:10;;;;;;;8.33;2.30;;;4.50;42.40;;;;;;5029246;28;20434;-54
2024/01/02 09:36:37;;;;;;;5.33;2.40;;;4.50;39.10;;;;;;5025592;28;20497;-54
2024/01/02 09:39:04;;;;;;;3.30;2.33;;;4.50;32.30;;;;;;5033018;28;20446;-54
2024/01/02 09:41:52;;;;;;;7.07;2.23;;;4.50;27.10;;;;;;5032552;28;20880;-54
2024/01/02 09:44:36;;;;;;;3.60;2.30;;;4.60;22.80;;;;;;5027472;28;20818;-55
2024/01/02 09:47:11;;;;;;;8.73;2.80;;;4.60;99.90;;;;;;5025395;28;20941;-54
2024/01/02 09:49:54;;;;;;;3.77;2.00;;;4.60;99.90;;;;;;5020411;28;20983;-53
2024/01/02 09:52:44;;;;;;;5.83;2.63;;;4.60;99.90;;;;;;5027176;28;20474;-55
2024/01/02 09:55:20;;;;;;;4.23;2.27;;;4.50;99.90;;;;;;5025024;28;20463;-54
2024/01/02 09:57:55;;;;;;;3.43;2.00;;;4.50;99.90;;;;;;5030332;28;20486;-55
2024/01/02 10:00:32;;;;;;;3.20;2.20;;;4.50;99.90;;;;;;5023304;28;20559;-54
2024/01/02 10:03:25;;;;;;;3.10;2.10;;;4.50;99.90;;;;;;5023239;28;20888;-54
2024/01/02 10:06:04;;;;;;;3.00;2.43;;;4.60;99.90;;;;;;5023763;28;20482;-54
2024/01/02 10:08:49;;;;;;;3.10;2.30;;;4.50;99.90;;;;;;5017305;28;20462;-54
2024/01/02 10:11:25;;;;;;;5.50;2.30;;;4.50;99.90;;;;;;5025463;28;20521;-54
2024/01/02 10:14:00;;;;;;;2.93;1.90;;;4.50;99.90;;;;;;5022392;28;20458;-53
2024/01/02 10:16:33;;;;;;;5.77;2.53;;;4.60;99.90;;;;;;5029413;28;20982;-53
2024/01/02 10:19:13;;;;;;;6.50;2.53;;;4.60;99.90;;;;;;5029426;28;21006;-58
2024/01/02 10:21:48;;;;;;;4.97;3.03;;;4.60;99.90;;;;;;5029978;28;20533;-57
2024/01/02 10:24:31;;;;;;;5.77;3.03;;;4.70;99.90;;;;;;5022947;28;20532;-57
2024/01/02 10:27:07;;;;;;;7.87;4.00;;;4.70;99.90;;;;;;5016467;28;20498;-57
2024/01/02 10:29:46;;;;;;;2.97;2.27;;;4.70;99.90;;;;;;5021579;28;20887;-58
2024/01/02 10:32:19;;;;;;;4.47;2.40;;;4.70;99.90;;;;;;5026940;28;20850;-54
2024/01/02 10:34:57;;;;;;;2.70;2.00;;;4.70;99.90;;;;;;5021497;28;21045;-52
2024/01/02 10:37:29;;;;;;;6.07;2.20;;;4.70;99.90;;;;;;5027351;28;20454;-53
2024/01/02 10:40:07;;;;;;;4.23;3.00;;;4.70;99.90;;;;;;5026146;28;20470;-54
2024/01/02 10:42:43;;;;;;;2.60;2.40;;;4.70;99.90;;;;;;5025176;28;20464;-54
2024/01/02 10:45:18;;;;;;;2.93;1.97;;;4.80;99.90;;;;;;5022492;28;20486;-54
2024/01/02 10:47:58;;;;;;;1.90;1.70;;;4.70;99.90;;;;;;5021730;28;20585;-53
2024/01/02 10:50:32;;;;;;;4.60;1.60;;;4.70;99.90;;;;;;5022850;28;20490;-54
2024/01/02 10:53:13;;;;;;;4.10;1.90;;;4.70;99.90;;;;;;5021240;28;20612;-53
2024/01/02 10:55:48;;;;;;;6.10;2.43;;;4.70;99.90;;;;;;5024073;28;20467;-53
2024/01/02 10:58:20;;;;;;;2.43;1.80;;;4.70;99.90;;;;;;5023130;28;20544;-54
2024/01/02 11:01:01;;;;;;;2.30;2.10;;;4.80;99.90;;;;;;5040940;28;20475;-55
2024/01/02 11:03:31;;;;;;;1.97;1.80;;;4.80;99.90;;;;;;5045562;28;20459;-53
2024/01/02 11:06:10;;;;;;;2.83;1.80;;;4.90;99.90;;;;;;5043702;28;20500;-54
2024/01/02 11:08:50;;;;;;;2.30;1.83;;;4.90;99.90;;;;;;5043491;28;20490;-53
2024/01/02 11:11:18;;;;;;;3.10;1.60;;;4.90;99.90;;;;;;5037742;28;20469;-54
2024/01/02 11:13:47;;;;;;;1.70;1.60;;;5.00;99.90;;;;;;5030074;28;20463;-54
2024/01/02 11:16:17;;;;;;;4.37;2.37;;;5.00;99.90;;;;;;5023981;28;20447;-54
2024/01/02 11:18:47;;;;;;;1.80;1.60;;;5.00;99.90;;;;;;5030358;28;20949;-53
2024/01/02 11:21:24;;;;;;;3.23;1.77;;;5.00;99.90;;;;;;5031273;28;20486;-53
2024/01/02 11:23:54;;;;;;;4.57;1.90;;;4.90;99.90;;;;;;5026995;28;20522;-53
2024/01/02 11:26:25;;;;;;;3.20;1.50;;;4.90;99.90;;;;;;5021340;28;20495;-53
2024/01/02 11:28:53;;;;;;;2.13;1.40;;;4.90;99.90;;;;;;5020331;28;20458;-53
2024/01/02 11:31:21;;;;;;;1.60;1.50;;;4.90;99.90;;;;;;5021249;28;20542;-53
2024/01/02 11:34:03;;;;;;;1.97;1.70;;;4.90;99.90;;;;;;5024886;28;20452;-53
2024/01/02 11:36:53;;;;;;;1.43;1.30;;;4.80;99.90;;;;;;5026767;28;20485;-54
2024/01/02 11:39:28;;;;;;;2.03;1.60;;;4.90;99.90;;;;;;5022127;28;20447;-54
2024/01/02 11:42:07;;;;;;;2.10;1.43;;;4.90;99.90;;;;;;5023404;28;20478;-54
2024/01/02 11:44:45;;;;;;;2.53;1.57;;;4.80;99.90;;;;;;5027785;28;20474;-53
2024/01/02 11:47:24;;;;;;;3.30;1.70;;;4.90;99.90;;;;;;5018781;28;20656;-53
2024/01/02 11:50:00;;;;;;;1.50;1.40;;;4.90;99.90;;;;;;5028175;28;20546;-54
2024/01/02 11:52:29;;;;;;;1.60;1.50;;;4.90;99.90;;;;;;5023661;28;20540;-53
2024/01/02 11:55:13;;;;;;;1.73;1.30;;;4.90;99.90;;;;;;5022709;28;20470;-53
2024/01/02 11:57:50;;;;;;;2.80;1.90;;;4.90;99.90;;;;;;5017653;28;20482;-53
2024/01/02 12:00:24;;;;;;;4.00;1.60;;;4.90;99.90;;;;;;5029095;28;20616;-54
2024/01/02 12:03:01;;;;;;;2.70;1.50;;;4.90;99.90;;;;;;5026642;28;20462;-54
2024/01/02 12:05:38;;;;;;;1.67;1.57;;;4.90;99.90;;;;;;5023478;28;20495;-54
2024/01/02 12:08:10;;;;;;;2.50;1.50;;;4.90;99.90;;;;;;5016827;28;20973;-54
2024/01/02 12:10:42;;;;;;;4.50;2.10;;;4.90;99.90;;;;;;5024114;28;20537;-54
2024/01/02 12:13:20;;;;;;;4.10;1.50;;;4.90;99.90;;;;;;5026990;28;20505;-54
2024/01/02 12:15:52;;;;;;;1.83;1.20;;;4.90;99.90;;;;;;5024366;28;20475;-54
2024/01/02 12:18:22;;;;;;;2.90;1.83;;;4.90;99.90;;;;;;5018740;28;20563;-54
2024/01/02 12:20:54;;;;;;;1.73;1.63;;;4.90;99.90;;;;;;5020513;28;20496;-54
2024/01/02 12:23:23;;;;;;;2.33;2.13;;;4.90;99.90;;;;;;5028621;28;20485;-54
2024/01/02 12:25:50;;;;;;;5.10;3.17;;;4.90;99.90;;;;;;5025143;28;20512;-54
2024/01/02 12:28:21;;;;;;;4.53;2.07;;;4.90;99.90;;;;;;5032687;28;20500;-54
2024/01/02 12:30:57;;;;;;;3.20;2.23;;;4.90;99.90;;;;;;5032304;28;20478;-54
2024/01/02 12:33:33;;;;;;;2.13;1.90;;;4.90;99.90;;;;;;5028931;28;20465;-54
2024/01/02 12:36:11;;;;;;;1.87;1.77;;;4.90;99.90;;;;;;5028247;28;20469;-54
2024/01/02 12:38:48;;;;;;;1.80;1.70;;;5.00;99.90;;;;;;5029178;28;20458;-54
2024/01/02 12:41:20;;;;;;;1.97;1.87;;;5.00;99.90;;;;;;5022370;28;20569;-54
2024/01/02 12:43:51;;;;;;;2.80;2.00;;;4.90;99.90;;;;;;5030650;28;20469;-54
2024/01/02 12:46:21;;;;;;;2.07;1.77;;;4.90;99.90;;;;;;5028316;28;20474;-55
2024/01/02 12:49:07;;;;;;;2.40;2.00;;;5.00;99.90;;;;;;5028856;28;20470;-54
2024/01/02 12:51:36;;;;;;;3.20;3.00;;;4.90;99.90;;;;;;5026876;28;20577;-54
2024/01/02 12:54:08;;;;;;;2.70;2.50;;;5.00;99.90;;;;;;5025550;28;20459;-54
2024/01/02 12:56:40;;;;;;;5.80;5.30;;;5.00;99.90;;;;;;5023546;28;20509;-54
2024/01/02 12:59:07;;;;;;;2.00;1.90;;;5.00;99.90;;;;;;5029441;28;20454;-54
2024/01/02 13:01:34;;;;;;;2.77;2.20;;;5.00;99.90;;;;;;5024622;28;20522;-54
2024/01/02 13:04:02;;;;;;;3.17;2.40;;;5.10;99.90;;;;;;5021729;28;20458;-55